KLDM/LDM METAR and TAF weather

Enter ICAO airport designator
Station Type Date Time Source
KLDM METAR 2022/09/26 08:35 UTC NOAA

KLDM 260835Z AUTO 32012G20KT 10SM BKN022 BKN033 OVC044 14/09 A2963 RMK AO2 T01370091


Station Type Date Time Source
KLDM Decoded METAR 2022/09/26 08:35 UTC NOAA

Ludington, Mason County Airport, MI, United States (KLDM) 43-58N 86-24W
Sep 26, 2022 - 04:35 AM EDT / 2022.09.26 0835 UTC
Wind: from the NW (320 degrees) at 14 MPH (12 KT) gusting to 23 MPH (20 KT):0
Visibility: 10 mile(s):0
Sky conditions: overcast
Temperature: 56.7 F (13.7 C)
Dew Point: 48.4 F (9.1 C)
Relative Humidity: 73%
Pressure (altimeter): 29.63 in. Hg (1003 hPa)
ob: KLDM 260835Z AUTO 32012G20KT 10SM BKN022 BKN033 OVC044 14/09 A2963 RMK AO2 T01370091
cycle: 8

Station Type Date Time Source
KLDM TAF UTC NOAA

Error!

Example: see airport list